createdAt,value
2022-11-01T00:01:21.817Z,16.22
2022-11-01T00:04:39.923Z,16.15
2022-11-01T00:07:20.057Z,16.05
2022-11-01T00:09:50.319Z,16.01
2022-11-01T00:12:18.467Z,15.81
2022-11-01T00:14:51.263Z,15.84
2022-11-01T00:17:20.424Z,15.75
2022-11-01T00:19:49.000Z,15.74
2022-11-01T00:22:18.743Z,15.80
2022-11-01T00:24:47.513Z,15.74
2022-11-01T00:27:16.237Z,15.73
2022-11-01T00:29:44.936Z,16.04
2022-11-01T00:32:16.879Z,16.12
2022-11-01T00:34:44.993Z,16.30
2022-11-01T00:37:13.148Z,16.41
2022-11-01T00:39:42.826Z,16.47
2022-11-01T00:42:10.945Z,16.47
2022-11-01T00:44:39.282Z,16.60
2022-11-01T00:47:07.747Z,16.64
2022-11-01T00:49:37.713Z,16.57
2022-11-01T00:52:11.704Z,16.54
2022-11-01T00:54:39.694Z,16.56
2022-11-01T00:57:09.454Z,16.57
2022-11-01T00:59:40.881Z,16.68
2022-11-01T01:02:09.424Z,16.71
2022-11-01T01:04:42.390Z,16.80
2022-11-01T01:07:11.780Z,16.86
2022-11-01T01:09:40.306Z,17.01
2022-11-01T01:12:10.839Z,17.06
2022-11-01T01:14:38.988Z,17.13
2022-11-01T01:17:07.124Z,17.15
2022-11-01T01:19:35.442Z,17.28
2022-11-01T01:22:03.585Z,17.34
2022-11-01T01:24:35.653Z,17.37
2022-11-01T01:27:04.754Z,17.44
2022-11-01T01:29:35.272Z,17.51
2022-11-01T01:32:03.441Z,17.46
2022-11-01T01:34:34.074Z,17.56
2022-11-01T01:37:02.252Z,17.62
2022-11-01T01:39:31.205Z,17.66
2022-11-01T01:41:59.728Z,17.69
2022-11-01T01:45:16.897Z,17.73
2022-11-01T01:47:49.565Z,17.72
2022-11-01T01:50:25.217Z,17.73
2022-11-01T01:52:59.992Z,17.77
2022-11-01T01:55:33.612Z,17.85
2022-11-01T01:58:01.921Z,17.90
2022-11-01T02:00:30.277Z,17.88
2022-11-01T02:03:01.142Z,17.93
2022-11-01T02:05:36.479Z,17.98
2022-11-01T02:08:08.568Z,17.99
2022-11-01T02:10:41.868Z,18.02
2022-11-01T02:13:14.781Z,18.05
2022-11-01T02:16:00.477Z,18.09
2022-11-01T02:18:42.919Z,18.13
2022-11-01T02:21:44.449Z,18.15
2022-11-01T02:24:33.947Z,18.11
2022-11-01T02:27:14.996Z,18.18
2022-11-01T02:30:16.016Z,18.15
2022-11-01T02:33:11.783Z,18.12
2022-11-01T02:35:57.471Z,18.15
2022-11-01T02:38:34.913Z,18.16
2022-11-01T02:41:10.870Z,18.07
2022-11-01T02:43:49.111Z,18.12
2022-11-01T02:46:36.500Z,18.17
2022-11-01T02:49:07.298Z,18.23
2022-11-01T02:51:37.788Z,18.27
2022-11-01T02:54:12.068Z,18.27
2022-11-01T02:56:41.215Z,18.30
2022-11-01T02:59:24.377Z,18.36
2022-11-01T03:02:05.578Z,18.32
2022-11-01T03:04:37.847Z,18.37
2022-11-01T03:07:11.421Z,18.35
2022-11-01T03:09:45.530Z,18.38
2022-11-01T03:12:20.274Z,18.40
2022-11-01T03:14:58.993Z,18.44
2022-11-01T03:17:39.395Z,18.45
2022-11-01T03:20:18.550Z,18.51
2022-11-01T03:22:51.361Z,18.53
2022-11-01T03:25:41.900Z,18.56
2022-11-01T03:28:16.368Z,18.56
2022-11-01T03:30:49.270Z,18.57
2022-11-01T03:33:20.001Z,18.55
2022-11-01T03:35:53.492Z,18.54
2022-11-01T03:38:31.682Z,18.56
2022-11-01T03:41:08.546Z,18.52
2022-11-01T03:43:38.197Z,18.45
2022-11-01T03:46:07.120Z,18.41
2022-11-01T03:48:37.239Z,18.33
2022-11-01T03:51:08.856Z,18.26
2022-11-01T03:53:37.401Z,18.21
2022-11-01T03:56:09.978Z,18.16
2022-11-01T03:58:50.728Z,18.11
2022-11-01T04:01:21.729Z,18.11
2022-11-01T04:03:50.191Z,18.09
2022-11-01T04:06:27.274Z,18.03
2022-11-01T04:08:59.931Z,17.97
2022-11-01T04:11:28.159Z,17.93
2022-11-01T04:14:16.761Z,17.85
2022-11-01T04:17:02.472Z,17.79
2022-11-01T04:19:50.700Z,17.72
2022-11-01T04:22:24.568Z,17.63
2022-11-01T04:24:52.942Z,17.61
2022-11-01T04:27:20.913Z,17.62
2022-11-01T04:29:54.669Z,17.66
2022-11-01T04:32:25.891Z,17.78
2022-11-01T04:34:57.319Z,17.85
2022-11-01T04:37:40.685Z,17.92
2022-11-01T04:40:10.608Z,18.01
2022-11-01T04:42:39.198Z,18.09
2022-11-01T04:45:10.538Z,18.11
2022-11-01T04:47:38.659Z,18.19
2022-11-01T04:50:07.580Z,18.26
2022-11-01T04:52:38.273Z,18.35
2022-11-01T04:55:07.270Z,18.35
2022-11-01T04:57:39.971Z,18.40
2022-11-01T05:00:11.548Z,18.37
2022-11-01T05:02:40.923Z,18.33
2022-11-01T05:05:11.133Z,18.28
2022-11-01T05:07:41.575Z,18.21
2022-11-01T05:10:11.690Z,18.19
2022-11-01T05:12:39.968Z,18.10
2022-11-01T05:15:11.023Z,18.05
2022-11-01T05:17:45.575Z,18.05
2022-11-01T05:20:17.164Z,18.05
2022-11-01T05:22:47.071Z,18.07
2022-11-01T05:25:15.534Z,18.02
2022-11-01T05:27:43.543Z,18.00
2022-11-01T05:30:12.946Z,18.02
2022-11-01T05:32:41.102Z,18.01
2022-11-01T05:35:09.881Z,17.98
2022-11-01T05:37:38.042Z,17.91
2022-11-01T05:40:09.533Z,17.90
2022-11-01T05:42:40.181Z,17.88
2022-11-01T05:45:10.153Z,17.81
2022-11-01T05:47:40.666Z,17.87
2022-11-01T05:50:10.066Z,17.86
2022-11-01T05:52:38.777Z,17.88
2022-11-01T05:55:09.834Z,17.88
2022-11-01T05:57:37.989Z,17.91
2022-11-01T06:00:07.744Z,17.90
2022-11-01T06:02:36.115Z,17.88
2022-11-01T06:05:04.474Z,17.86
2022-11-01T06:07:32.546Z,17.88
2022-11-01T06:10:00.682Z,17.86
2022-11-01T06:12:32.255Z,17.80
2022-11-01T06:15:00.507Z,17.82
2022-11-01T06:17:28.525Z,17.78
2022-11-01T06:19:57.071Z,17.78
2022-11-01T06:22:25.052Z,17.81
2022-11-01T06:24:53.094Z,17.78
2022-11-01T06:27:21.216Z,17.77
2022-11-01T06:29:51.327Z,17.72
2022-11-01T06:32:19.497Z,17.64
2022-11-01T06:34:47.949Z,17.62
2022-11-01T06:37:19.133Z,17.59
2022-11-01T06:39:47.278Z,17.56
2022-11-01T06:42:15.377Z,17.54
2022-11-01T06:44:43.832Z,17.50
2022-11-01T06:47:14.627Z,17.45
2022-11-01T06:49:42.741Z,17.44
2022-11-01T06:52:10.744Z,17.45
2022-11-01T06:54:38.836Z,17.39
2022-11-01T06:57:07.695Z,17.34
2022-11-01T06:59:36.022Z,17.31
2022-11-01T07:02:12.435Z,17.32
2022-11-01T07:04:43.847Z,17.29
2022-11-01T07:07:12.052Z,17.27
2022-11-01T07:09:40.328Z,17.24
2022-11-01T07:35:25.504Z,16.92
2022-11-01T07:38:31.609Z,16.97
2022-11-01T08:13:38.825Z,17.32
2022-11-01T08:16:58.216Z,17.30
2022-11-01T08:25:30.435Z,17.16
2022-11-01T08:28:16.220Z,17.10
2022-11-01T08:38:24.754Z,16.84
2022-11-01T08:44:58.601Z,16.57
2022-11-01T08:54:27.227Z,16.47
2022-11-01T09:00:13.443Z,16.57
2022-11-01T09:02:49.469Z,16.58
2022-11-01T09:17:57.828Z,16.38
2022-11-01T09:20:46.041Z,16.41
2022-11-01T09:36:01.906Z,16.69
2022-11-01T09:56:04.928Z,17.22
2022-11-01T09:59:02.646Z,17.20
2022-11-01T10:05:23.382Z,17.28
2022-11-01T10:08:03.383Z,17.31
2022-11-01T10:22:57.920Z,17.41
2022-11-01T10:25:39.350Z,17.49
2022-11-01T11:45:26.217Z,17.68
2022-11-01T12:25:36.920Z,18.05
2022-11-01T12:28:20.462Z,18.30
2022-11-01T12:34:42.748Z,18.65
2022-11-01T12:37:42.324Z,18.78
2022-11-01T12:40:37.115Z,18.81
2022-11-01T12:46:42.167Z,18.88
2022-11-01T12:49:33.177Z,18.89
2022-11-01T13:27:12.901Z,15.56
2022-11-01T14:06:45.482Z,14.69
2022-11-01T15:00:42.267Z,16.38
2022-11-01T15:03:23.257Z,16.59
2022-11-01T15:06:27.345Z,16.75
2022-11-01T15:19:08.594Z,16.76
2022-11-01T15:21:50.604Z,16.62
2022-11-01T15:25:06.902Z,16.41
2022-11-01T15:28:21.153Z,16.17
2022-11-01T15:31:22.994Z,15.98
2022-11-01T15:34:02.391Z,15.85
2022-11-01T15:36:40.680Z,15.80
2022-11-01T15:39:19.749Z,15.74
2022-11-01T15:41:49.278Z,15.74
2022-11-01T15:54:11.860Z,15.11
2022-11-01T15:56:53.714Z,14.36
2022-11-01T15:59:55.312Z,13.87
2022-11-01T16:02:47.733Z,13.69
2022-11-01T16:05:20.951Z,13.68
2022-11-01T16:07:53.174Z,13.77
2022-11-01T16:10:35.468Z,13.82
2022-11-01T16:13:06.242Z,13.94
2022-11-01T16:15:47.602Z,14.05
2022-11-01T16:47:25.410Z,14.76
2022-11-01T16:50:00.950Z,14.85
2022-11-01T16:52:32.248Z,14.87
2022-11-01T16:55:08.961Z,14.92
2022-11-01T16:57:48.053Z,14.95
2022-11-01T17:00:19.704Z,14.98
2022-11-01T17:02:51.192Z,14.97
2022-11-01T17:05:25.286Z,14.91
2022-11-01T17:07:55.550Z,14.84
2022-11-01T17:10:28.769Z,14.75
2022-11-01T17:13:08.649Z,14.72
2022-11-01T17:15:48.395Z,14.68
2022-11-01T17:18:25.586Z,14.69
2022-11-01T17:21:27.660Z,14.70
2022-11-01T17:29:20.187Z,14.77
2022-11-01T17:31:48.981Z,14.77
2022-11-01T17:34:19.132Z,14.52
2022-11-01T17:37:04.549Z,14.26
2022-11-01T17:39:36.133Z,14.07
2022-11-01T17:42:04.243Z,14.02
2022-11-01T17:47:21.212Z,13.99
2022-11-01T17:49:52.074Z,14.01
2022-11-01T17:55:46.239Z,14.12
2022-11-01T17:59:00.796Z,14.20
2022-11-01T18:05:29.061Z,14.43
2022-11-01T18:29:48.891Z,15.34
2022-11-01T18:32:54.830Z,15.28
2022-11-01T19:09:10.935Z,14.75
2022-11-01T19:11:45.627Z,14.64
2022-11-01T19:14:38.823Z,14.70
2022-11-01T19:17:38.304Z,14.79
2022-11-01T19:20:35.485Z,14.95
2022-11-01T19:29:03.604Z,15.36
2022-11-01T19:31:39.283Z,15.44
2022-11-01T19:37:20.016Z,15.22
2022-11-01T19:40:10.161Z,15.04
2022-11-01T19:42:44.651Z,15.01
2022-11-01T19:45:36.949Z,14.98
2022-11-01T19:48:12.994Z,15.06
2022-11-01T19:53:30.550Z,15.22
2022-11-01T20:07:27.038Z,15.35
2022-11-01T20:10:56.247Z,15.39
2022-11-01T20:14:05.795Z,15.55
2022-11-01T20:42:57.797Z,16.01
2022-11-01T20:51:33.736Z,16.18
2022-11-01T20:57:27.457Z,16.34
2022-11-01T21:17:09.989Z,15.25
2022-11-01T21:19:54.709Z,15.22
2022-11-01T21:22:32.839Z,15.41
2022-11-01T22:13:46.484Z,16.46
2022-11-01T22:19:19.628Z,15.37
2022-11-01T22:22:06.701Z,14.94
2022-11-01T22:24:36.731Z,14.78
2022-11-01T22:29:48.328Z,14.58
2022-11-01T22:32:18.812Z,14.38
2022-11-01T22:37:56.183Z,14.37
2022-11-01T22:40:45.875Z,14.42
2022-11-01T22:43:36.823Z,14.52
2022-11-01T22:46:31.542Z,14.63
2022-11-01T22:49:17.058Z,14.74
2022-11-01T22:51:47.274Z,14.79
2022-11-01T22:57:24.950Z,15.01
2022-11-01T23:51:38.589Z,16.27
2022-11-01T23:54:56.180Z,16.33
